DLH4RL EPGD-EDDF
Flight info
| Callsign | DLH4RL |
|---|---|
| Flight time | N/A |
| Altitude | 36000 |
| Route | DEXIR T671 VEKON L730 UNVOX DCT ALUKA DCT KOSIX DCT NIMAB T171 LASTO T178 KERAX KERAX5A |
| Aircraft | A320/M-SDE3FGHIRWY/LB1 |
Departure
| Time | N/A |
|---|---|
| Airport | Gdańsk Lech Wałęsa Airport (EPGD) |
Arrival
| Time | 2026-04-18 08:45 |
|---|---|
| Airport | Frankfurt Main Airport (EDDF) |
| Time | Latitude | Longitude | Altitude | Speed | Heading |
|---|---|---|---|---|---|
| 2026-04-18 08:12 | 51.76835 | 12.22202 | 36204 ft | 421 kts | 231° |
| 2026-04-18 08:13 | 51.72923 | 12.15262 | 36211 ft | 420 kts | 230° |
| 2026-04-18 08:13 | 51.68961 | 12.08252 | 36216 ft | 420 kts | 230° |
| 2026-04-18 08:14 | 51.65058 | 12.01350 | 36201 ft | 419 kts | 230° |
| 2026-04-18 08:14 | 51.61123 | 11.94425 | 36203 ft | 419 kts | 230° |
| 2026-04-18 08:15 | 51.57184 | 11.87526 | 36203 ft | 419 kts | 230° |
| 2026-04-18 08:15 | 51.53245 | 11.80630 | 36196 ft | 418 kts | 230° |
| 2026-04-18 08:16 | 51.49310 | 11.73748 | 36189 ft | 418 kts | 230° |
| 2026-04-18 08:16 | 51.45368 | 11.66885 | 36181 ft | 418 kts | 230° |
| 2026-04-18 08:17 | 51.41421 | 11.60033 | 36181 ft | 418 kts | 230° |
| 2026-04-18 08:17 | 51.37475 | 11.53188 | 36187 ft | 418 kts | 230° |
| 2026-04-18 08:18 | 51.33525 | 11.46376 | 36196 ft | 417 kts | 230° |
| 2026-04-18 08:18 | 51.29580 | 11.39578 | 36197 ft | 417 kts | 230° |
| 2026-04-18 08:19 | 51.25631 | 11.32793 | 36195 ft | 417 kts | 230° |
| 2026-04-18 08:19 | 51.21675 | 11.26025 | 36199 ft | 417 kts | 230° |
| 2026-04-18 08:20 | 51.17721 | 11.19277 | 36201 ft | 416 kts | 230° |
| 2026-04-18 08:20 | 51.13788 | 11.12516 | 36194 ft | 415 kts | 233° |
| 2026-04-18 08:21 | 51.10758 | 11.04789 | 35912 ft | 411 kts | 244° |
| 2026-04-18 08:21 | 51.09407 | 11.00800 | 35420 ft | 408 kts | 244° |
| 2026-04-18 08:21 | 51.08069 | 10.96849 | 34936 ft | 404 kts | 244° |
| 2026-04-18 08:21 | 51.06740 | 10.92927 | 34457 ft | 401 kts | 244° |
| 2026-04-18 08:22 | 51.05418 | 10.89041 | 33937 ft | 398 kts | 243° |
| 2026-04-18 08:22 | 51.04101 | 10.85193 | 33450 ft | 394 kts | 243° |
| 2026-04-18 08:22 | 51.02796 | 10.81396 | 32988 ft | 389 kts | 243° |
| 2026-04-18 08:22 | 51.01505 | 10.77640 | 32515 ft | 386 kts | 243° |
| 2026-04-18 08:23 | 51.00224 | 10.73917 | 32023 ft | 383 kts | 243° |
| 2026-04-18 08:23 | 50.98958 | 10.70223 | 31556 ft | 380 kts | 243° |
| 2026-04-18 08:23 | 50.97703 | 10.66558 | 31082 ft | 377 kts | 243° |
| 2026-04-18 08:23 | 50.96457 | 10.62920 | 30618 ft | 374 kts | 243° |
| 2026-04-18 08:24 | 50.95218 | 10.59313 | 30158 ft | 371 kts | 243° |
| 2026-04-18 08:24 | 50.93984 | 10.55741 | 29675 ft | 367 kts | 243° |
| 2026-04-18 08:24 | 50.92765 | 10.52217 | 29245 ft | 362 kts | 243° |
| 2026-04-18 08:24 | 50.91549 | 10.48748 | 28811 ft | 358 kts | 240° |
| 2026-04-18 08:25 | 50.90053 | 10.45614 | 28408 ft | 356 kts | 229° |
| 2026-04-18 08:25 | 50.88185 | 10.43043 | 27987 ft | 356 kts | 217° |
| 2026-04-18 08:25 | 50.86026 | 10.41131 | 27552 ft | 356 kts | 206° |
| 2026-04-18 08:25 | 50.83732 | 10.39674 | 27130 ft | 354 kts | 205° |
| 2026-04-18 08:26 | 50.81456 | 10.38232 | 26712 ft | 351 kts | 205° |
| 2026-04-18 08:26 | 50.79197 | 10.36800 | 26282 ft | 350 kts | 205° |
| 2026-04-18 08:26 | 50.76939 | 10.35366 | 25840 ft | 348 kts | 205° |
| 2026-04-18 08:26 | 50.74691 | 10.33938 | 25403 ft | 347 kts | 205° |
| 2026-04-18 08:27 | 50.72449 | 10.32517 | 24937 ft | 347 kts | 205° |
| 2026-04-18 08:27 | 50.70206 | 10.31101 | 24482 ft | 347 kts | 205° |
| 2026-04-18 08:27 | 50.67997 | 10.29594 | 24020 ft | 345 kts | 212° |
| 2026-04-18 08:27 | 50.66026 | 10.27482 | 23518 ft | 341 kts | 224° |
| 2026-04-18 08:28 | 50.64412 | 10.24796 | 23068 ft | 336 kts | 236° |
| 2026-04-18 08:28 | 50.63188 | 10.21705 | 22641 ft | 331 kts | 243° |
| 2026-04-18 08:28 | 50.62094 | 10.18533 | 22222 ft | 329 kts | 243° |
| 2026-04-18 08:28 | 50.61002 | 10.15384 | 21807 ft | 327 kts | 243° |
| 2026-04-18 08:29 | 50.59915 | 10.12254 | 21393 ft | 325 kts | 243° |
| 2026-04-18 08:29 | 50.58834 | 10.09139 | 20974 ft | 323 kts | 243° |
| 2026-04-18 08:29 | 50.57757 | 10.06039 | 20563 ft | 322 kts | 243° |
| 2026-04-18 08:29 | 50.56681 | 10.02954 | 20159 ft | 321 kts | 243° |
| 2026-04-18 08:30 | 50.55606 | 9.99878 | 19752 ft | 320 kts | 243° |
| 2026-04-18 08:30 | 50.54548 | 9.96854 | 19365 ft | 320 kts | 243° |
| 2026-04-18 08:30 | 50.53450 | 9.93815 | 18964 ft | 320 kts | 241° |
| 2026-04-18 08:30 | 50.52287 | 9.90839 | 18551 ft | 320 kts | 239° |
| 2026-04-18 08:31 | 50.51089 | 9.87896 | 18114 ft | 319 kts | 238° |
| 2026-04-18 08:31 | 50.49867 | 9.84938 | 17706 ft | 318 kts | 238° |
| 2026-04-18 08:31 | 50.48684 | 9.82074 | 17321 ft | 316 kts | 238° |
| 2026-04-18 08:31 | 50.47495 | 9.79180 | 16929 ft | 315 kts | 239° |
| 2026-04-18 08:32 | 50.46315 | 9.76290 | 16533 ft | 314 kts | 239° |
| 2026-04-18 08:32 | 50.45145 | 9.73415 | 16163 ft | 312 kts | 239° |
| 2026-04-18 08:32 | 50.43977 | 9.70540 | 15780 ft | 312 kts | 239° |
| 2026-04-18 08:32 | 50.42814 | 9.67677 | 15407 ft | 311 kts | 239° |
| 2026-04-18 08:33 | 50.41651 | 9.64821 | 15025 ft | 310 kts | 239° |
| 2026-04-18 08:33 | 50.40489 | 9.61974 | 14638 ft | 310 kts | 239° |
| 2026-04-18 08:33 | 50.39326 | 9.59129 | 14272 ft | 310 kts | 238° |
| 2026-04-18 08:33 | 50.38166 | 9.56286 | 13873 ft | 310 kts | 238° |
| 2026-04-18 08:34 | 50.37008 | 9.53447 | 13481 ft | 308 kts | 238° |
| 2026-04-18 08:34 | 50.35852 | 9.50620 | 13094 ft | 307 kts | 238° |
| 2026-04-18 08:34 | 50.34702 | 9.47817 | 12718 ft | 305 kts | 238° |
| 2026-04-18 08:34 | 50.33559 | 9.45033 | 12330 ft | 303 kts | 238° |
| 2026-04-18 08:35 | 50.32425 | 9.42270 | 11955 ft | 301 kts | 238° |
| 2026-04-18 08:35 | 50.31288 | 9.39501 | 11429 ft | 304 kts | 238° |
| 2026-04-18 08:35 | 50.30141 | 9.36717 | 10997 ft | 305 kts | 238° |
| 2026-04-18 08:35 | 50.28995 | 9.33937 | 10600 ft | 303 kts | 238° |
| 2026-04-18 08:36 | 50.27861 | 9.31190 | 10358 ft | 296 kts | 238° |
| 2026-04-18 08:36 | 50.26761 | 9.28530 | 10187 ft | 287 kts | 237° |
| 2026-04-18 08:36 | 50.25684 | 9.25924 | 9864 ft | 284 kts | 237° |
| 2026-04-18 08:36 | 50.24625 | 9.23356 | 9278 ft | 280 kts | 237° |
| 2026-04-18 08:37 | 50.23573 | 9.20812 | 8661 ft | 276 kts | 237° |
| 2026-04-18 08:37 | 50.22545 | 9.18328 | 8224 ft | 271 kts | 237° |
| 2026-04-18 08:37 | 50.21520 | 9.15860 | 7833 ft | 271 kts | 237° |
| 2026-04-18 08:37 | 50.20497 | 9.13397 | 7435 ft | 270 kts | 236° |
| 2026-04-18 08:38 | 50.19474 | 9.10936 | 7028 ft | 270 kts | 236° |
| 2026-04-18 08:38 | 50.18452 | 9.08476 | 6628 ft | 270 kts | 236° |
| 2026-04-18 08:38 | 50.17433 | 9.06029 | 6223 ft | 269 kts | 236° |
| 2026-04-18 08:38 | 50.16418 | 9.03595 | 5832 ft | 267 kts | 236° |
| 2026-04-18 08:39 | 50.15405 | 9.01169 | 5421 ft | 267 kts | 236° |
| 2026-04-18 08:39 | 50.14423 | 8.98819 | 5257 ft | 246 kts | 236° |
| 2026-04-18 08:39 | 50.13531 | 8.96686 | 5184 ft | 226 kts | 236° |
| 2026-04-18 08:39 | 50.12691 | 8.94646 | 5082 ft | 223 kts | 239° |
| 2026-04-18 08:40 | 50.12020 | 8.92486 | 4858 ft | 221 kts | 247° |
| 2026-04-18 08:40 | 50.11480 | 8.90292 | 4582 ft | 220 kts | 249° |
| 2026-04-18 08:40 | 50.10954 | 8.88047 | 4289 ft | 221 kts | 249° |
| 2026-04-18 08:40 | 50.10598 | 8.86529 | 4091 ft | 221 kts | 249° |
| 2026-04-18 08:41 | 50.10069 | 8.84275 | 3802 ft | 221 kts | 250° |
| 2026-04-18 08:41 | 50.09547 | 8.82058 | 3523 ft | 212 kts | 250° |
| 2026-04-18 08:41 | 50.09050 | 8.79950 | 3225 ft | 202 kts | 250° |
| 2026-04-18 08:41 | 50.08579 | 8.77957 | 2960 ft | 191 kts | 250° |
| 2026-04-18 08:42 | 50.08129 | 8.76049 | 2704 ft | 183 kts | 251° |
| 2026-04-18 08:42 | 50.07706 | 8.74260 | 2483 ft | 168 kts | 251° |
| 2026-04-18 08:42 | 50.07315 | 8.72611 | 2266 ft | 155 kts | 251° |
| 2026-04-18 08:42 | 50.06954 | 8.71085 | 2058 ft | 147 kts | 251° |
| 2026-04-18 08:43 | 50.06606 | 8.69615 | 1863 ft | 143 kts | 252° |
| 2026-04-18 08:43 | 50.06274 | 8.68214 | 1680 ft | 142 kts | 251° |
| 2026-04-18 08:43 | 50.05931 | 8.66766 | 1477 ft | 142 kts | 250° |
| 2026-04-18 08:43 | 50.05588 | 8.65326 | 1292 ft | 142 kts | 251° |
| 2026-04-18 08:44 | 50.05251 | 8.63884 | 1114 ft | 142 kts | 252° |
| 2026-04-18 08:44 | 50.04907 | 8.62435 | 922 ft | 143 kts | 251° |
| 2026-04-18 08:44 | 50.04555 | 8.60983 | 738 ft | 143 kts | 250° |
| 2026-04-18 08:44 | 50.04213 | 8.59522 | 499 ft | 143 kts | 252° |
| 2026-04-18 08:45 | 50.03866 | 8.58075 | 355 ft | 140 kts | 251° |
| 2026-04-18 08:45 | 50.03570 | 8.56824 | 352 ft | 102 kts | 249° |
| 2026-04-18 08:45 | 50.03383 | 8.56043 | 350 ft | 52 kts | 250° |
| 2026-04-18 08:45 | 50.03309 | 8.55644 | 346 ft | 30 kts | 273° |
| 2026-04-18 08:46 | 50.03324 | 8.55408 | 348 ft | 14 kts | 279° |
| 2026-04-18 08:46 | 50.03340 | 8.55271 | 346 ft | 12 kts | 280° |
| 2026-04-18 08:46 | 50.03353 | 8.55153 | 347 ft | 10 kts | 280° |
| 2026-04-18 08:46 | 50.03365 | 8.55039 | 349 ft | 13 kts | 274° |
| 2026-04-18 08:47 | 50.03346 | 8.54862 | 353 ft | 22 kts | 249° |
| 2026-04-18 08:47 | 50.03288 | 8.54616 | 354 ft | 25 kts | 250° |
| 2026-04-18 08:47 | 50.03309 | 8.54482 | 349 ft | 5 kts | 356° |
| 2026-04-18 08:47 | 50.03347 | 8.54461 | 353 ft | 8 kts | 339° |
| 2026-04-18 08:48 | 50.03411 | 8.54423 | 351 ft | 10 kts | 339° |
| 2026-04-18 08:48 | 50.03502 | 8.54372 | 350 ft | 18 kts | 340° |
| 2026-04-18 08:48 | 50.03599 | 8.54318 | 354 ft | 7 kts | 339° |
| 2026-04-18 08:48 | 50.03623 | 8.54307 | 353 ft | 1 kts | 347° |
| 2026-04-18 08:49 | 50.03646 | 8.54307 | 351 ft | 7 kts | 16° |
| 2026-04-18 08:49 | 50.03670 | 8.54360 | 351 ft | 6 kts | 69° |
| 2026-04-18 08:49 | 50.03683 | 8.54410 | 353 ft | 4 kts | 69° |
| 2026-04-18 08:49 | 50.03691 | 8.54444 | 352 ft | 0 kts | 71° |
| 2026-04-18 08:50 | 50.03704 | 8.54505 | 347 ft | 13 kts | 71° |
| 2026-04-18 08:51 | 50.03739 | 8.54656 | 351 ft | 16 kts | 70° |
| 2026-04-18 08:51 | 50.03780 | 8.54828 | 352 ft | 18 kts | 70° |
| 2026-04-18 08:51 | 50.03827 | 8.55019 | 348 ft | 20 kts | 69° |
| 2026-04-18 08:51 | 50.03877 | 8.55230 | 346 ft | 22 kts | 69° |
| 2026-04-18 08:52 | 50.03932 | 8.55458 | 353 ft | 23 kts | 70° |
| 2026-04-18 08:52 | 50.03982 | 8.55671 | 353 ft | 21 kts | 70° |
| 2026-04-18 08:52 | 50.04030 | 8.55872 | 353 ft | 19 kts | 69° |
| 2026-04-18 08:52 | 50.04074 | 8.56057 | 351 ft | 16 kts | 68° |
| 2026-04-18 08:53 | 50.04110 | 8.56098 | 355 ft | 0 kts | 3° |
| 2026-04-18 08:54 | 50.04117 | 8.56098 | 353 ft | 4 kts | 358° |
| 2026-04-18 08:54 | 50.04178 | 8.56067 | 350 ft | 13 kts | 340° |
| 2026-04-18 08:55 | 50.04266 | 8.56055 | 345 ft | 13 kts | 21° |
| 2026-04-18 08:55 | 50.04355 | 8.56049 | 347 ft | 14 kts | 341° |
| 2026-04-18 08:55 | 50.04440 | 8.56072 | 350 ft | 13 kts | 62° |
| 2026-04-18 08:55 | 50.04474 | 8.56208 | 353 ft | 14 kts | 70° |
| 2026-04-18 08:56 | 50.04508 | 8.56352 | 349 ft | 15 kts | 70° |
| 2026-04-18 08:56 | 50.04572 | 8.56455 | 353 ft | 11 kts | 24° |
| 2026-04-18 08:56 | 50.04583 | 8.56463 | 349 ft | 0 kts | 24° |
| 2026-04-18 08:56 | 50.04603 | 8.56477 | 349 ft | 12 kts | 24° |
| 2026-04-18 08:57 | 50.04742 | 8.56631 | 348 ft | 8 kts | 53° |
| 2026-04-18 08:57 | 50.04749 | 8.56694 | 349 ft | 5 kts | 114° |
| 2026-04-18 08:57 | 50.04738 | 8.56732 | 352 ft | 2 kts | 114° |
| 2026-04-18 08:58 | 50.04736 | 8.56738 | 351 ft | 0 kts | 114° |